createdAt,value
2023-04-15T00:01:51.876Z,79.72
2023-04-15T00:04:18.507Z,79.93
2023-04-15T00:06:52.944Z,79.99
2023-04-15T00:09:20.288Z,79.93
2023-04-15T00:11:47.158Z,80.06
2023-04-15T00:14:13.838Z,79.98
2023-04-15T00:16:40.334Z,79.92
2023-04-15T00:19:06.883Z,79.95
2023-04-15T00:21:33.440Z,79.80
2023-04-15T00:23:59.938Z,79.77
2023-04-15T00:26:26.408Z,79.69
2023-04-15T00:28:52.868Z,79.77
2023-04-15T00:31:19.396Z,79.91
2023-04-15T00:33:45.942Z,79.90
2023-04-15T00:36:12.465Z,79.85
2023-04-15T00:38:38.963Z,79.75
2023-04-15T00:41:05.459Z,79.68
2023-04-15T00:43:31.970Z,79.60
2023-04-15T00:45:59.502Z,79.56
2023-04-15T00:48:26.689Z,79.50
2023-04-15T00:50:53.148Z,79.44
2023-04-15T00:53:19.632Z,79.37
2023-04-15T00:55:46.083Z,79.33
2023-04-15T00:58:12.632Z,79.39
2023-04-15T01:00:39.115Z,79.47
2023-04-15T01:03:05.800Z,79.43
2023-04-15T01:05:33.179Z,79.46
2023-04-15T01:07:59.867Z,79.67
2023-04-15T01:10:26.382Z,79.46
2023-04-15T01:12:52.885Z,79.19
2023-04-15T01:15:20.380Z,79.39
2023-04-15T01:17:47.080Z,79.38
2023-04-15T01:20:13.648Z,79.48
2023-04-15T01:22:40.818Z,79.59
2023-04-15T01:25:11.652Z,79.46
2023-04-15T01:27:40.244Z,79.51
2023-04-15T01:30:08.173Z,79.68
2023-04-15T01:32:34.796Z,79.71
2023-04-15T01:35:01.326Z,79.38
2023-04-15T01:37:27.876Z,79.49
2023-04-15T01:39:54.358Z,79.60
2023-04-15T01:42:21.846Z,79.67
2023-04-15T01:44:48.321Z,79.46
2023-04-15T01:47:14.764Z,79.65
2023-04-15T01:49:41.260Z,79.71
2023-04-15T01:52:07.718Z,79.71
2023-04-15T01:54:34.229Z,79.80
2023-04-15T01:57:00.726Z,79.80
2023-04-15T01:59:27.205Z,79.82
2023-04-15T02:01:53.732Z,79.78
2023-04-15T02:04:20.214Z,79.64
2023-04-15T02:06:46.665Z,79.65
2023-04-15T02:09:13.150Z,79.53
2023-04-15T02:11:39.638Z,79.39
2023-04-15T02:14:06.082Z,79.25
2023-04-15T02:16:33.312Z,79.32
2023-04-15T02:19:00.654Z,79.40
2023-04-15T02:21:27.602Z,79.44
2023-04-15T02:23:54.250Z,79.37
2023-04-15T02:26:20.794Z,79.37
2023-04-15T02:28:47.405Z,79.28
2023-04-15T02:31:13.901Z,79.11
2023-04-15T02:33:40.434Z,79.05
2023-04-15T02:36:07.103Z,79.00
2023-04-15T02:38:33.720Z,78.92
2023-04-15T02:41:00.216Z,78.91
2023-04-15T02:43:26.718Z,78.94
2023-04-15T02:45:53.152Z,78.96
2023-04-15T02:48:19.721Z,78.80
2023-04-15T02:50:47.050Z,78.74
2023-04-15T02:53:13.847Z,78.65
2023-04-15T02:55:40.598Z,78.57
2023-04-15T02:58:07.143Z,78.58
2023-04-15T03:00:33.751Z,78.51
2023-04-15T03:03:05.407Z,78.43
2023-04-15T03:05:32.234Z,78.38
2023-04-15T03:07:58.712Z,78.33
2023-04-15T03:10:25.197Z,78.28
2023-04-15T03:12:51.693Z,78.34
2023-04-15T03:15:18.179Z,78.35
2023-04-15T03:17:44.674Z,78.32
2023-04-15T03:20:11.273Z,78.22
2023-04-15T03:22:37.815Z,78.27
2023-04-15T03:25:04.624Z,78.24
2023-04-15T03:27:31.086Z,78.20
2023-04-15T03:29:57.556Z,78.21
2023-04-15T03:32:24.454Z,78.32
2023-04-15T03:34:50.967Z,78.35
2023-04-15T03:37:17.401Z,78.44
2023-04-15T03:39:43.846Z,78.53
2023-04-15T03:42:10.280Z,78.42
2023-04-15T03:44:36.786Z,78.44
2023-04-15T03:47:03.380Z,78.54
2023-04-15T03:49:29.898Z,78.55
2023-04-15T03:51:56.358Z,78.49
2023-04-15T03:54:22.908Z,78.54
2023-04-15T03:56:49.390Z,78.57
2023-04-15T03:59:15.875Z,78.56
2023-04-15T04:01:42.374Z,78.55
2023-04-15T04:04:08.993Z,78.63
2023-04-15T04:06:35.519Z,78.61
2023-04-15T04:09:02.186Z,78.64
2023-04-15T04:11:28.933Z,78.59
2023-04-15T04:13:55.405Z,78.67
2023-04-15T04:16:22.097Z,78.78
2023-04-15T04:18:48.662Z,78.71
2023-04-15T04:21:15.242Z,78.66
2023-04-15T04:23:41.746Z,78.78
2023-04-15T04:26:08.255Z,78.72
2023-04-15T04:28:34.750Z,78.74
2023-04-15T04:31:01.268Z,78.87
2023-04-15T04:33:27.783Z,78.86
2023-04-15T04:35:54.249Z,78.79
2023-04-15T04:38:20.675Z,78.64
2023-04-15T04:40:47.432Z,78.59
2023-04-15T04:43:13.944Z,78.53
2023-04-15T04:45:40.529Z,78.52
2023-04-15T04:48:07.177Z,78.47
2023-04-15T04:50:34.453Z,78.39
2023-04-15T04:53:01.454Z,78.57
2023-04-15T04:55:28.287Z,78.49
2023-04-15T04:57:54.848Z,78.37
2023-04-15T05:00:21.409Z,78.13
2023-04-15T05:02:48.211Z,78.11
2023-04-15T05:05:15.021Z,78.06
2023-04-15T05:07:41.638Z,77.95
2023-04-15T05:10:08.679Z,77.85
2023-04-15T05:12:36.001Z,77.77
2023-04-15T05:15:02.509Z,77.83
2023-04-15T05:17:28.995Z,77.96
2023-04-15T05:19:55.517Z,78.01
2023-04-15T05:22:22.019Z,78.04
2023-04-15T05:24:48.499Z,78.08
2023-04-15T05:27:14.958Z,77.89
2023-04-15T05:29:41.442Z,77.89
2023-04-15T05:32:08.062Z,77.85
2023-04-15T05:34:34.663Z,77.66
2023-04-15T05:37:01.206Z,77.24
2023-04-15T05:39:27.854Z,77.33
2023-04-15T05:41:54.416Z,76.95
2023-04-15T05:44:20.898Z,76.51
2023-04-15T05:46:47.366Z,75.97
2023-04-15T05:49:13.847Z,75.79
2023-04-15T05:51:40.298Z,75.36
2023-04-15T05:54:07.230Z,75.17
2023-04-15T05:56:33.766Z,75.29
2023-04-15T05:59:00.382Z,75.50
2023-04-15T06:01:27.552Z,75.17
2023-04-15T06:03:54.185Z,74.67
2023-04-15T06:06:20.741Z,74.86
2023-04-15T06:08:47.229Z,74.91
2023-04-15T06:11:13.795Z,74.74
2023-04-15T06:13:40.297Z,74.84
2023-04-15T06:16:07.142Z,74.76
2023-04-15T06:18:33.667Z,74.56
2023-04-15T06:21:00.227Z,74.02
2023-04-15T06:23:27.996Z,73.98
2023-04-15T06:25:54.591Z,73.85
2023-04-15T06:28:21.092Z,73.50
2023-04-15T06:30:47.646Z,72.85
2023-04-15T06:33:14.125Z,72.71
2023-04-15T06:35:40.606Z,72.80
2023-04-15T06:38:07.058Z,72.36
2023-04-15T06:40:33.718Z,72.13
2023-04-15T06:43:00.379Z,72.21
2023-04-15T06:45:26.859Z,71.64
2023-04-15T06:47:53.458Z,70.93
2023-04-15T06:50:19.979Z,70.83
2023-04-15T06:52:46.485Z,70.65
2023-04-15T06:55:12.956Z,70.54
2023-04-15T06:57:39.394Z,70.61
2023-04-15T07:00:06.541Z,70.10
2023-04-15T07:02:33.425Z,70.43
2023-04-15T07:05:00.041Z,70.28
2023-04-15T07:07:26.507Z,69.86
2023-04-15T07:09:52.959Z,69.34
2023-04-15T07:12:20.161Z,69.16
2023-04-15T07:14:46.689Z,68.91
2023-04-15T07:17:13.455Z,68.85
2023-04-15T07:19:39.966Z,68.38
2023-04-15T07:22:06.495Z,68.01
2023-04-15T07:24:33.203Z,67.88
2023-04-15T07:27:01.105Z,67.55
2023-04-15T07:29:28.064Z,67.46
2023-04-15T07:31:54.648Z,67.61
2023-04-15T07:34:21.183Z,67.13
2023-04-15T07:36:47.904Z,66.76
2023-04-15T07:39:14.393Z,66.40
2023-04-15T07:41:40.994Z,65.77
2023-04-15T07:44:07.523Z,65.20
2023-04-15T07:46:34.201Z,64.93
2023-04-15T07:49:01.096Z,64.77
2023-04-15T07:51:27.804Z,64.69
2023-04-15T07:53:54.262Z,63.93
2023-04-15T07:56:20.773Z,63.25
2023-04-15T07:58:47.256Z,63.00
2023-04-15T08:01:13.734Z,61.52
2023-04-15T08:03:40.429Z,61.14
2023-04-15T08:06:07.024Z,60.82
2023-04-15T08:08:33.554Z,60.27
2023-04-15T08:11:00.171Z,59.90
2023-04-15T08:13:26.719Z,59.54
2023-04-15T08:16:22.195Z,58.30
2023-04-15T08:18:50.007Z,58.53
2023-04-15T08:21:17.945Z,58.78
2023-04-15T08:23:45.180Z,58.63
2023-04-15T08:26:12.198Z,58.73
2023-04-15T08:28:40.552Z,58.59
2023-04-15T08:31:07.568Z,58.12
2023-04-15T08:33:34.067Z,57.41
2023-04-15T08:36:00.604Z,56.87
2023-04-15T08:38:27.234Z,57.57
2023-04-15T08:40:53.723Z,57.04
2023-04-15T08:43:23.508Z,56.90
2023-04-15T08:45:51.030Z,55.29
2023-04-15T08:48:18.039Z,54.80
2023-04-15T08:50:46.573Z,55.61
2023-04-15T08:53:13.623Z,55.65
2023-04-15T08:55:51.823Z,55.53
2023-04-15T08:58:19.401Z,55.45
2023-04-15T09:00:45.971Z,55.39
2023-04-15T09:03:12.697Z,55.44
2023-04-15T09:05:39.240Z,56.04
2023-04-15T09:08:05.829Z,55.50
2023-04-15T09:10:34.479Z,55.46
2023-04-15T09:13:01.787Z,55.35
2023-04-15T09:15:28.479Z,55.13
2023-04-15T09:17:55.485Z,54.12
2023-04-15T09:20:22.871Z,52.97
2023-04-15T09:22:50.251Z,52.91
2023-04-15T09:25:22.709Z,53.22
2023-04-15T09:27:53.205Z,53.31
2023-04-15T09:30:19.686Z,53.15
2023-04-15T09:32:57.812Z,53.06
2023-04-15T09:35:26.486Z,52.89
2023-04-15T09:37:54.700Z,53.15
2023-04-15T09:40:39.450Z,53.15
2023-04-15T09:43:07.697Z,52.71
2023-04-15T09:45:35.491Z,51.04
2023-04-15T09:48:34.472Z,50.82
2023-04-15T09:51:01.889Z,51.51
2023-04-15T09:53:29.823Z,50.35
2023-04-15T09:56:00.472Z,50.53
2023-04-15T09:58:28.904Z,51.03
2023-04-15T10:00:57.425Z,51.08
2023-04-15T10:03:31.899Z,51.84
2023-04-15T10:06:01.399Z,51.93
2023-04-15T10:08:30.274Z,51.29
2023-04-15T10:10:57.509Z,50.83
2023-04-15T10:13:25.967Z,50.74
2023-04-15T10:15:59.259Z,51.16
2023-04-15T10:18:28.285Z,51.07
2023-04-15T10:20:55.336Z,52.16
2023-04-15T10:23:23.316Z,52.48
2023-04-15T10:25:52.399Z,52.59
2023-04-15T10:28:20.510Z,51.64
2023-04-15T10:30:47.999Z,52.22
2023-04-15T10:33:15.410Z,51.69
2023-04-15T10:35:42.895Z,51.07
2023-04-15T10:38:45.405Z,51.74
2023-04-15T10:41:12.558Z,50.65
2023-04-15T10:43:39.195Z,48.97
2023-04-15T10:46:06.648Z,46.95
2023-04-15T10:48:33.336Z,45.93
2023-04-15T10:51:03.071Z,45.88
2023-04-15T10:53:29.972Z,45.66
2023-04-15T10:55:57.910Z,46.02
2023-04-15T10:58:25.588Z,46.09
2023-04-15T11:00:53.717Z,46.63
2023-04-15T11:03:40.709Z,48.35
2023-04-15T11:06:07.783Z,50.61
2023-04-15T11:08:56.142Z,52.62
2023-04-15T11:11:23.154Z,54.42
2023-04-15T11:13:52.531Z,55.13
2023-04-15T11:16:19.009Z,55.05
2023-04-15T11:18:55.482Z,55.33
2023-04-15T11:21:25.263Z,55.80
2023-04-15T11:23:51.857Z,56.67
2023-04-15T11:26:18.370Z,56.78
2023-04-15T11:28:46.173Z,56.84
2023-04-15T11:31:14.822Z,55.54
2023-04-15T11:33:58.852Z,54.31
2023-04-15T11:36:29.934Z,53.60
2023-04-15T11:38:58.674Z,53.21
2023-04-15T11:41:25.176Z,52.19
2023-04-15T11:43:52.761Z,52.40
2023-04-15T11:46:19.671Z,52.70
2023-04-15T11:48:47.462Z,53.03
2023-04-15T11:51:14.566Z,52.89
2023-04-15T11:53:47.902Z,53.18
2023-04-15T11:56:26.296Z,53.73
2023-04-15T11:58:55.456Z,52.62
2023-04-15T12:01:31.318Z,51.95
2023-04-15T12:03:57.876Z,52.80
2023-04-15T12:06:25.735Z,53.24
2023-04-15T12:08:55.267Z,53.22
2023-04-15T12:11:27.723Z,53.40
2023-04-15T12:13:57.184Z,53.77
2023-04-15T12:16:24.997Z,54.32
2023-04-15T12:18:55.949Z,54.59
2023-04-15T12:21:24.561Z,54.66
2023-04-15T12:23:52.975Z,54.71
2023-04-15T12:26:28.016Z,54.74
2023-04-15T12:29:05.041Z,54.52
2023-04-15T12:31:31.620Z,54.63
2023-04-15T12:33:59.078Z,54.13
2023-04-15T12:36:25.565Z,54.37
2023-04-15T12:38:52.023Z,54.97
2023-04-15T12:41:18.685Z,55.44
2023-04-15T12:43:45.446Z,55.03
2023-04-15T12:46:12.060Z,54.69
2023-04-15T12:48:38.646Z,54.85
2023-04-15T12:51:05.802Z,54.21
2023-04-15T12:53:32.450Z,54.07
2023-04-15T12:55:58.928Z,53.46
2023-04-15T12:58:25.432Z,54.04
2023-04-15T13:00:51.899Z,54.58
2023-04-15T13:03:18.491Z,54.49
2023-04-15T13:05:45.022Z,55.05
2023-04-15T13:08:11.495Z,55.21
2023-04-15T13:10:38.008Z,55.11
2023-04-15T13:13:05.797Z,54.82
2023-04-15T13:15:32.309Z,54.81
2023-04-15T13:17:58.838Z,54.27
2023-04-15T13:20:25.483Z,54.78
2023-04-15T13:22:52.963Z,54.83
2023-04-15T13:25:19.831Z,54.43
2023-04-15T13:27:46.359Z,54.72
2023-04-15T13:30:12.922Z,55.30
2023-04-15T13:32:39.432Z,55.62
2023-04-15T13:35:06.098Z,55.35
2023-04-15T13:37:32.612Z,55.65
2023-04-15T13:39:59.088Z,55.77
2023-04-15T13:42:25.656Z,56.13
2023-04-15T13:44:52.210Z,56.06
2023-04-15T13:47:21.945Z,56.19
2023-04-15T13:49:48.538Z,56.62
2023-04-15T13:52:15.015Z,57.06
2023-04-15T13:54:41.518Z,57.26
2023-04-15T13:57:08.234Z,57.42
2023-04-15T13:59:34.790Z,57.21
2023-04-15T14:02:02.063Z,56.95
2023-04-15T14:04:28.702Z,56.64
2023-04-15T14:06:56.292Z,56.62
2023-04-15T14:09:25.012Z,56.87
2023-04-15T14:11:53.065Z,57.30
2023-04-15T14:14:19.598Z,57.44
2023-04-15T14:16:46.150Z,57.71
2023-04-15T14:19:12.659Z,57.88
2023-04-15T14:21:39.136Z,57.94
2023-04-15T14:24:06.022Z,58.50
2023-04-15T14:26:32.641Z,58.26
2023-04-15T14:28:59.103Z,58.32
2023-04-15T14:31:25.627Z,58.23
2023-04-15T14:33:52.131Z,58.22
2023-04-15T14:36:18.709Z,58.32
2023-04-15T14:38:46.468Z,58.79
2023-04-15T14:41:14.108Z,59.06
2023-04-15T14:43:40.574Z,59.34
2023-04-15T14:46:07.720Z,59.91
2023-04-15T14:48:34.265Z,59.12
2023-04-15T14:51:00.860Z,58.89
2023-04-15T14:53:27.342Z,58.26
2023-04-15T14:55:53.833Z,57.90
2023-04-15T14:58:20.309Z,57.07
2023-04-15T15:00:47.035Z,56.33
2023-04-15T15:03:13.820Z,56.14
2023-04-15T15:05:41.975Z,55.90
2023-04-15T15:08:09.495Z,56.13
2023-04-15T15:10:47.985Z,56.12
2023-04-15T15:13:17.471Z,56.42
2023-04-15T15:15:44.084Z,56.29
2023-04-15T15:18:11.195Z,56.57
2023-04-15T15:20:37.777Z,56.40
2023-04-15T15:23:04.290Z,56.47
2023-04-15T15:25:30.780Z,56.66
2023-04-15T15:27:57.611Z,57.27
2023-04-15T15:30:24.237Z,57.65
2023-04-15T15:32:51.365Z,57.83
2023-04-15T15:35:18.021Z,58.34
2023-04-15T15:37:45.708Z,58.95
2023-04-15T15:40:12.613Z,58.98
2023-04-15T15:42:39.119Z,59.40
2023-04-15T15:45:06.088Z,59.60
2023-04-15T15:47:32.793Z,59.76
2023-04-15T15:50:01.026Z,59.80
2023-04-15T15:52:27.810Z,60.02
2023-04-15T15:54:54.300Z,60.31
2023-04-15T15:57:20.763Z,60.56
2023-04-15T15:59:47.292Z,60.75
2023-04-15T16:02:13.995Z,61.03
2023-04-15T16:04:40.865Z,61.07
2023-04-15T16:07:07.452Z,61.46
2023-04-15T16:09:33.964Z,61.65
2023-04-15T16:12:00.567Z,61.78
2023-04-15T16:14:27.085Z,62.25
2023-04-15T16:16:53.630Z,62.51
2023-04-15T16:19:21.135Z,62.54
2023-04-15T16:21:48.252Z,62.86
2023-04-15T16:24:14.848Z,62.84
2023-04-15T16:26:41.787Z,63.01
2023-04-15T16:29:08.516Z,63.38
2023-04-15T16:31:35.307Z,63.41
2023-04-15T16:34:02.708Z,63.83
2023-04-15T16:36:29.183Z,64.11
2023-04-15T16:38:55.661Z,64.38
2023-04-15T16:41:22.174Z,64.67
2023-04-15T16:43:48.714Z,65.06
2023-04-15T16:46:15.210Z,65.98
2023-04-15T16:48:41.754Z,66.39
2023-04-15T16:51:08.296Z,66.98
2023-04-15T16:53:34.754Z,67.49
2023-04-15T16:56:01.244Z,67.81
2023-04-15T16:58:27.815Z,68.02
2023-04-15T17:00:54.321Z,68.25
2023-04-15T17:03:20.947Z,68.39
2023-04-15T17:05:47.561Z,68.73
2023-04-15T17:08:14.031Z,68.95
2023-04-15T17:10:40.550Z,69.23
2023-04-15T17:13:07.372Z,69.49
2023-04-15T17:15:33.896Z,69.23
2023-04-15T17:18:00.514Z,69.67
2023-04-15T17:20:27.014Z,69.44
2023-04-15T17:22:53.514Z,69.60
2023-04-15T17:25:19.990Z,70.07
2023-04-15T17:27:46.459Z,69.93
2023-04-15T17:30:12.963Z,70.45
2023-04-15T17:32:39.827Z,70.67
2023-04-15T17:35:07.169Z,70.66
2023-04-15T17:37:34.513Z,71.00
2023-04-15T17:40:01.040Z,71.10
2023-04-15T17:42:27.515Z,71.29
2023-04-15T17:44:54.016Z,71.59
2023-04-15T17:47:20.653Z,71.84
2023-04-15T17:49:47.215Z,71.96
2023-04-15T17:52:14.508Z,72.17
2023-04-15T17:54:40.985Z,72.31
2023-04-15T17:57:07.496Z,72.44
2023-04-15T17:59:33.996Z,72.61
2023-04-15T18:02:00.577Z,72.94
2023-04-15T18:04:27.380Z,73.07
2023-04-15T18:06:54.029Z,73.15
2023-04-15T18:09:20.603Z,73.43
2023-04-15T18:11:47.159Z,73.60
2023-04-15T18:14:20.182Z,73.62
2023-04-15T18:16:53.414Z,73.88
2023-04-15T18:19:19.862Z,73.93
2023-04-15T18:21:46.305Z,73.94
2023-04-15T18:24:12.814Z,73.96
2023-04-15T18:26:39.304Z,74.12
2023-04-15T18:29:05.776Z,74.02
2023-04-15T18:31:32.505Z,74.12
2023-04-15T18:33:59.151Z,74.14
2023-04-15T18:36:25.725Z,74.22
2023-04-15T18:38:52.220Z,74.15
2023-04-15T18:41:18.696Z,74.03
2023-04-15T18:43:45.198Z,73.85
2023-04-15T18:46:11.838Z,73.65
2023-04-15T18:48:38.393Z,73.67
2023-04-15T18:51:04.899Z,73.81
2023-04-15T18:53:31.421Z,73.75
2023-04-15T18:55:57.939Z,73.99
2023-04-15T18:58:24.410Z,74.16
2023-04-15T19:00:51.014Z,74.14
2023-04-15T19:03:17.601Z,74.24
2023-04-15T19:05:44.206Z,74.36
2023-04-15T19:08:11.009Z,74.27
2023-04-15T19:10:38.425Z,74.41
2023-04-15T19:13:04.910Z,74.29
2023-04-15T19:15:31.499Z,74.45
2023-04-15T19:17:58.025Z,74.33
2023-04-15T19:20:24.569Z,74.42
2023-04-15T19:22:51.140Z,74.62
2023-04-15T19:25:17.680Z,74.55
2023-04-15T19:27:44.152Z,74.68
2023-04-15T19:30:10.731Z,74.83
2023-04-15T19:32:37.355Z,74.90
2023-04-15T19:35:04.073Z,74.82
2023-04-15T19:37:30.815Z,74.87
2023-04-15T19:39:57.384Z,74.93
2023-04-15T19:42:23.929Z,74.90
2023-04-15T19:44:50.400Z,74.96
2023-04-15T19:47:17.039Z,75.00
2023-04-15T19:49:43.616Z,75.19
2023-04-15T19:52:10.084Z,75.25
2023-04-15T19:54:36.602Z,75.26
2023-04-15T19:57:03.602Z,75.35
2023-04-15T19:59:30.179Z,75.37
2023-04-15T20:01:56.989Z,75.51
2023-04-15T20:04:23.611Z,75.47
2023-04-15T20:06:50.196Z,75.52
2023-04-15T20:09:16.830Z,75.64
2023-04-15T20:12:48.080Z,75.93
2023-04-15T20:14:29.763Z,76.06
2023-04-15T20:16:56.298Z,76.07
2023-04-15T20:19:22.794Z,76.09
2023-04-15T20:21:51.960Z,76.28
2023-04-15T20:24:19.097Z,76.47
2023-04-15T20:26:45.568Z,76.33
2023-04-15T20:29:12.072Z,76.38
2023-04-15T20:31:38.592Z,76.60
2023-04-15T20:34:05.158Z,76.50
2023-04-15T20:36:31.718Z,76.55
2023-04-15T20:38:58.171Z,76.53
2023-04-15T20:41:24.645Z,76.66
2023-04-15T20:43:51.143Z,76.60
2023-04-15T20:46:21.478Z,76.67
2023-04-15T20:48:48.591Z,76.63
2023-04-15T20:51:15.116Z,76.64
2023-04-15T20:53:41.632Z,76.63
2023-04-15T20:56:08.213Z,76.64
2023-04-15T20:58:34.678Z,76.69
2023-04-15T21:01:01.206Z,76.58
2023-04-15T21:03:27.988Z,76.49
2023-04-15T21:05:54.524Z,76.53
2023-04-15T21:08:21.068Z,76.52
2023-04-15T21:10:47.546Z,76.57
2023-04-15T21:13:14.076Z,76.46
2023-04-15T21:15:40.588Z,76.47
2023-04-15T21:18:07.089Z,76.37
2023-04-15T21:20:33.559Z,76.40
2023-04-15T21:23:00.023Z,76.53
2023-04-15T21:25:26.474Z,76.39
2023-04-15T21:27:52.960Z,76.59
2023-04-15T21:30:19.482Z,76.57
2023-04-15T21:32:45.938Z,76.39
2023-04-15T21:35:12.532Z,76.44
2023-04-15T21:37:39.010Z,76.48
2023-04-15T21:40:06.150Z,76.49
2023-04-15T21:42:32.609Z,76.62
2023-04-15T21:44:59.121Z,76.51
2023-04-15T21:47:25.706Z,76.65
2023-04-15T21:49:52.255Z,76.62
2023-04-15T21:52:18.809Z,76.64
2023-04-15T21:54:45.277Z,76.76
2023-04-15T21:57:11.782Z,76.90
2023-04-15T21:59:38.232Z,76.90
2023-04-15T22:02:04.843Z,76.92
2023-04-15T22:04:31.468Z,76.93
2023-04-15T22:06:57.942Z,76.93
2023-04-15T22:09:24.438Z,76.86
2023-04-15T22:11:50.869Z,76.83
2023-04-15T22:14:17.313Z,76.78
2023-04-15T22:16:43.836Z,76.69
2023-04-15T22:19:10.397Z,76.50
2023-04-15T22:21:36.856Z,76.70
2023-04-15T22:24:38.309Z,76.64
2023-04-15T22:26:50.060Z,76.55
2023-04-15T22:29:16.509Z,76.66
2023-04-15T22:31:43.007Z,76.62
2023-04-15T22:34:09.466Z,76.55
2023-04-15T22:36:35.914Z,76.69
2023-04-15T22:39:02.396Z,76.65
2023-04-15T22:41:28.930Z,76.78
2023-04-15T22:43:55.414Z,76.89
2023-04-15T22:46:21.968Z,76.86
2023-04-15T22:48:48.494Z,76.89
2023-04-15T22:51:21.140Z,76.84
2023-04-15T22:53:47.646Z,76.81
2023-04-15T22:56:14.111Z,76.88
2023-04-15T22:58:40.685Z,76.91
2023-04-15T23:01:08.025Z,76.97
2023-04-15T23:03:40.192Z,77.01
2023-04-15T23:06:20.960Z,77.11
2023-04-15T23:08:47.441Z,77.05
2023-04-15T23:11:13.955Z,77.04
2023-04-15T23:13:40.434Z,77.06
2023-04-15T23:16:07.490Z,77.17
2023-04-15T23:18:34.230Z,77.23
2023-04-15T23:21:00.741Z,77.30
2023-04-15T23:23:27.236Z,77.38
2023-04-15T23:25:53.692Z,77.31
2023-04-15T23:28:20.163Z,77.32
2023-04-15T23:30:46.630Z,77.39
2023-04-15T23:33:13.167Z,77.35
2023-04-15T23:35:39.651Z,77.49
2023-04-15T23:38:06.113Z,77.28
2023-04-15T23:40:32.615Z,77.59
2023-04-15T23:42:59.089Z,77.71
2023-04-15T23:45:25.623Z,77.81
2023-04-15T23:47:52.184Z,77.86
2023-04-15T23:50:18.810Z,77.83
2023-04-15T23:52:45.266Z,77.80
2023-04-15T23:55:11.797Z,77.70
2023-04-15T23:57:38.332Z,77.63
